« 尾道展示飛行展開 広島空港 2019/7/26 fri | トップページ | 伏木港まつり艦艇広報「かが」 伏木港 2019/7/28 sun »

2019/07/30

尾道港開港850年記念ブルーインパルス展示飛行 尾道市 2019/7/27 sat

尾道の朝。早朝から散歩。

20190727_onomichi_00mukoujimab

東の空は焼けています。これで雲が切れていくようです。

20190727_onomichi_01mukoujimamaru

港の朝は早い。造船所は6時から仕事が始まっています。

20190727_onomichi_02hiroshimamaru

広島商船高専の練習船「広島丸」が停泊していました。

RJOA 262110Z 30005KT CAVOK 24/20 Q1009 RMK A2980

20190727_onomichi_03hiroshimamaru

港と街が近い いたるところで花火観覧の場所取りがされていました。

20190727_onomichi_04jr

おはよう 山陽線

RJOA 262300Z 26004KT 9999 FEW020 SCT/// 26/21 Q1010

20190727_onomichi_05mukoujimamaru

ホテルで補給をして、いざ渡海

20190727_onomichi_06mukoujimamaru

河を上っていきます。

20190727_onomichi_07mukoujimamaru

向島丸で向島着上陸

20190727_onomichi_08hiroshimamaru

本日は、この地で要撃

RJOA 270000Z 27004KT 180V290 9999 FEW020 27/21 Q1010

20190727_onomichi_09hiroshimamaru

9:30 広島丸が出港

RJOA 270200Z 21005KT 140V270 9999 SCT020 29/22 Q1010

20190727_onomichi_10setouchi02

瀬戸内シーブレーンが行き交います。 SETOUCHI02

20190727_onomichi_11setochidori

広島県警察の「せとちどり」が水道の警戒にあたっています。

20190727_onomichi_12bi

11:46 インサイト 発見が遅れた

20190727_onomichi_13bi

思った以上に遠くに見える

20190727_onomichi_14bi

キューピッド

20190727_onomichi_15bi

東に廻って

20190727_onomichi_16bi

20190727_onomichi_17bi

エシュロン・ダーティ・ローパス

20190727_onomichi_18bi

20190727_onomichi_19bi

左周りのレーストラック

20190727_onomichi_20bi

ラインアブレスト・ローパス

20190727_onomichi_21bi

20190727_onomichi_22bi

20190727_onomichi_23bi

5番機がブレイクして

20190727_onomichi_24bi

直径900mの輪を描きます。

20190727_onomichi_25bi

反転 ブルーインパルスが正午をお伝えいたします。

RJOA 270300Z 20005KT 130V250 9999 FEW020 SCT025 29/22 Q1010

20190727_onomichi_26bi

5番機による「ななひゃくにじゅうどてんかい」でした。

20190727_onomichi_27bi

再度南から進入して

20190727_onomichi_28bi

日本一大きなきゅーぴっど

20190727_onomichi_29bi

ミッションコンプリート

20190727_onomichi_30bi

広島空港への帰投 直上通過してスモーク

20190727_onomichi_31bi

最後のごあいさつ

20190727_onomichi_32bi

広島空港RW28ダイレクトベースへ

20190727_onomichi_33onomichi

尾道って観光地なんだよねぇ。暑さで観光意欲マイナス。

20190727_onomichi_34mukoujimamaru

これにて本土に戻ります

20190727_onomichi_35onomichi

川から見上げる尾道城

20190727_onomichi_36kouramaru15

渡船と向島大橋を目に焼き付けて、小生も帰投に

遠征の皆さんお疲れ様でした。

20190727_onomichi_39onomichi

|

« 尾道展示飛行展開 広島空港 2019/7/26 fri | トップページ | 伏木港まつり艦艇広報「かが」 伏木港 2019/7/28 sun »

BI」カテゴリの記事

コメント

コメントを書く



(ウェブ上には掲載しません)


コメントは記事投稿者が公開するまで表示されません。



« 尾道展示飛行展開 広島空港 2019/7/26 fri | トップページ | 伏木港まつり艦艇広報「かが」 伏木港 2019/7/28 sun »